Terminal Aerodrome Forecast
Issued by NWS

Home | Current Version | Previous Version | Text Only | Print | Product List | Glossary On
Versions: 1 2 3 4 5 6 7 8 9 10 11 12 13 14 15 16 17 18 19 20 21 22 23 24 25 26 27 28 29 30
418
FTUS44 KFWD 281728
TAFAFW
TAF
KAFW 281728Z 2818/2918 17012KT P6SM SCT035
     FM291100 17011KT P6SM BKN018
     FM291600 18013KT P6SM SCT035=

USA.gov is the U.S. government's official web portal to all federal, state and local government web resources and services.